sensor_id;sensor_type;location;lat;lon;timestamp;P1;durP1;ratioP1;P2;durP2;ratioP2
11263;SDS011;5689;48.798;9.070;2022-11-20T00:01:31;1.13;;;1.13;;
11263;SDS011;5689;48.798;9.070;2022-11-20T00:04:01;1.17;;;1.17;;
11263;SDS011;5689;48.798;9.070;2022-11-20T00:06:29;0.97;;;0.97;;
11263;SDS011;5689;48.798;9.070;2022-11-20T00:08:58;1.00;;;1.00;;
11263;SDS011;5689;48.798;9.070;2022-11-20T00:11:29;1.03;;;1.03;;
11263;SDS011;5689;48.798;9.070;2022-11-20T00:14:00;0.90;;;0.90;;
11263;SDS011;5689;48.798;9.070;2022-11-20T00:16:30;1.00;;;1.00;;
11263;SDS011;5689;48.798;9.070;2022-11-20T00:18:59;0.97;;;0.97;;
11263;SDS011;5689;48.798;9.070;2022-11-20T00:21:28;0.90;;;0.90;;
11263;SDS011;5689;48.798;9.070;2022-11-20T00:23:57;0.93;;;0.93;;
11263;SDS011;5689;48.798;9.070;2022-11-20T00:26:29;1.30;;;1.30;;
11263;SDS011;5689;48.798;9.070;2022-11-20T00:28:58;0.80;;;0.80;;
11263;SDS011;5689;48.798;9.070;2022-11-20T00:31:27;0.90;;;0.90;;
11263;SDS011;5689;48.798;9.070;2022-11-20T00:33:56;0.83;;;0.83;;
11263;SDS011;5689;48.798;9.070;2022-11-20T00:36:26;0.90;;;0.90;;
11263;SDS011;5689;48.798;9.070;2022-11-20T00:38:55;0.83;;;0.83;;
11263;SDS011;5689;48.798;9.070;2022-11-20T00:41:25;1.10;;;1.10;;
11263;SDS011;5689;48.798;9.070;2022-11-20T00:43:56;0.80;;;0.80;;
11263;SDS011;5689;48.798;9.070;2022-11-20T00:46:25;0.80;;;0.80;;
11263;SDS011;5689;48.798;9.070;2022-11-20T00:48:54;0.80;;;0.80;;
11263;SDS011;5689;48.798;9.070;2022-11-20T00:51:24;0.80;;;0.80;;
11263;SDS011;5689;48.798;9.070;2022-11-20T00:53:54;0.83;;;0.83;;
11263;SDS011;5689;48.798;9.070;2022-11-20T00:56:23;0.73;;;0.73;;
11263;SDS011;5689;48.798;9.070;2022-11-20T00:58:52;0.87;;;0.87;;
11263;SDS011;5689;48.798;9.070;2022-11-20T01:01:22;0.97;;;0.97;;
11263;SDS011;5689;48.798;9.070;2022-11-20T01:03:52;0.70;;;0.70;;
11263;SDS011;5689;48.798;9.070;2022-11-20T01:06:22;0.70;;;0.70;;
11263;SDS011;5689;48.798;9.070;2022-11-20T01:08:52;0.80;;;0.80;;
11263;SDS011;5689;48.798;9.070;2022-11-20T01:11:23;0.80;;;0.80;;
11263;SDS011;5689;48.798;9.070;2022-11-20T01:13:55;0.80;;;0.80;;
11263;SDS011;5689;48.798;9.070;2022-11-20T01:16:26;0.70;;;0.70;;
11263;SDS011;5689;48.798;9.070;2022-11-20T01:18:57;0.80;;;0.80;;
11263;SDS011;5689;48.798;9.070;2022-11-20T01:21:28;0.77;;;0.77;;
11263;SDS011;5689;48.798;9.070;2022-11-20T01:23:57;0.83;;;0.83;;
11263;SDS011;5689;48.798;9.070;2022-11-20T01:26:27;0.70;;;0.70;;
11263;SDS011;5689;48.798;9.070;2022-11-20T01:28:57;0.90;;;0.90;;
11263;SDS011;5689;48.798;9.070;2022-11-20T01:31:31;0.80;;;0.80;;
11263;SDS011;5689;48.798;9.070;2022-11-20T01:34:04;0.80;;;0.80;;
11263;SDS011;5689;48.798;9.070;2022-11-20T01:36:34;0.80;;;0.80;;
11263;SDS011;5689;48.798;9.070;2022-11-20T01:39:04;0.70;;;0.70;;
11263;SDS011;5689;48.798;9.070;2022-11-20T01:41:35;0.83;;;0.83;;
11263;SDS011;5689;48.798;9.070;2022-11-20T01:47:17;0.70;;;0.70;;
11263;SDS011;5689;48.798;9.070;2022-11-20T01:49:59;0.70;;;0.70;;
11263;SDS011;5689;48.798;9.070;2022-11-20T01:52:33;0.70;;;0.70;;
11263;SDS011;5689;48.798;9.070;2022-11-20T01:55:04;0.70;;;0.70;;
11263;SDS011;5689;48.798;9.070;2022-11-20T01:57:36;0.80;;;0.80;;
11263;SDS011;5689;48.798;9.070;2022-11-20T02:00:07;0.80;;;0.80;;
11263;SDS011;5689;48.798;9.070;2022-11-20T02:02:39;0.70;;;0.70;;
11263;SDS011;5689;48.798;9.070;2022-11-20T02:05:12;0.80;;;0.80;;
11263;SDS011;5689;48.798;9.070;2022-11-20T02:07:46;0.80;;;0.80;;
11263;SDS011;5689;48.798;9.070;2022-11-20T02:10:16;0.90;;;0.90;;
11263;SDS011;5689;48.798;9.070;2022-11-20T02:12:45;0.90;;;0.90;;
11263;SDS011;5689;48.798;9.070;2022-11-20T02:15:31;0.70;;;0.70;;
11263;SDS011;5689;48.798;9.070;2022-11-20T02:18:02;0.70;;;0.70;;
11263;SDS011;5689;48.798;9.070;2022-11-20T02:20:30;0.80;;;0.80;;
11263;SDS011;5689;48.798;9.070;2022-11-20T02:22:59;0.70;;;0.70;;
11263;SDS011;5689;48.798;9.070;2022-11-20T02:25:35;0.70;;;0.70;;
11263;SDS011;5689;48.798;9.070;2022-11-20T02:28:05;0.80;;;0.80;;
11263;SDS011;5689;48.798;9.070;2022-11-20T02:30:33;0.87;;;0.87;;
11263;SDS011;5689;48.798;9.070;2022-11-20T02:33:02;0.90;;;0.90;;
11263;SDS011;5689;48.798;9.070;2022-11-20T02:35:40;1.00;;;1.00;;
11263;SDS011;5689;48.798;9.070;2022-11-20T02:38:11;0.90;;;0.90;;
11263;SDS011;5689;48.798;9.070;2022-11-20T02:40:41;0.70;;;0.70;;
11263;SDS011;5689;48.798;9.070;2022-11-20T02:43:09;0.80;;;0.80;;
11263;SDS011;5689;48.798;9.070;2022-11-20T02:45:38;0.70;;;0.70;;
11263;SDS011;5689;48.798;9.070;2022-11-20T02:48:06;0.90;;;0.90;;
11263;SDS011;5689;48.798;9.070;2022-11-20T02:50:36;0.90;;;0.90;;
11263;SDS011;5689;48.798;9.070;2022-11-20T02:53:06;0.80;;;0.80;;
11263;SDS011;5689;48.798;9.070;2022-11-20T02:55:35;0.73;;;0.73;;
11263;SDS011;5689;48.798;9.070;2022-11-20T02:58:05;0.80;;;0.80;;
11263;SDS011;5689;48.798;9.070;2022-11-20T03:00:33;0.87;;;0.87;;
11263;SDS011;5689;48.798;9.070;2022-11-20T03:03:01;0.80;;;0.80;;
11263;SDS011;5689;48.798;9.070;2022-11-20T03:05:30;0.77;;;0.77;;
11263;SDS011;5689;48.798;9.070;2022-11-20T03:07:58;0.70;;;0.70;;
11263;SDS011;5689;48.798;9.070;2022-11-20T03:10:26;0.80;;;0.80;;
11263;SDS011;5689;48.798;9.070;2022-11-20T03:12:55;0.80;;;0.80;;
11263;SDS011;5689;48.798;9.070;2022-11-20T03:15:25;0.70;;;0.70;;
11263;SDS011;5689;48.798;9.070;2022-11-20T03:17:53;0.80;;;0.80;;
11263;SDS011;5689;48.798;9.070;2022-11-20T03:20:22;0.80;;;0.80;;
11263;SDS011;5689;48.798;9.070;2022-11-20T03:22:50;0.80;;;0.80;;
11263;SDS011;5689;48.798;9.070;2022-11-20T03:25:20;1.00;;;1.00;;
11263;SDS011;5689;48.798;9.070;2022-11-20T03:27:48;0.80;;;0.80;;
11263;SDS011;5689;48.798;9.070;2022-11-20T03:30:17;0.80;;;0.80;;
11263;SDS011;5689;48.798;9.070;2022-11-20T03:32:46;0.83;;;0.83;;
11263;SDS011;5689;48.798;9.070;2022-11-20T03:35:14;0.93;;;0.93;;
11263;SDS011;5689;48.798;9.070;2022-11-20T03:37:43;1.00;;;1.00;;
11263;SDS011;5689;48.798;9.070;2022-11-20T03:40:12;0.90;;;0.90;;
11263;SDS011;5689;48.798;9.070;2022-11-20T03:42:40;1.00;;;1.00;;
11263;SDS011;5689;48.798;9.070;2022-11-20T03:45:15;0.80;;;0.80;;
11263;SDS011;5689;48.798;9.070;2022-11-20T03:47:44;0.90;;;0.90;;
11263;SDS011;5689;48.798;9.070;2022-11-20T03:50:14;0.83;;;0.83;;
11263;SDS011;5689;48.798;9.070;2022-11-20T03:52:43;0.90;;;0.90;;
11263;SDS011;5689;48.798;9.070;2022-11-20T03:55:11;0.87;;;0.87;;
11263;SDS011;5689;48.798;9.070;2022-11-20T03:57:39;0.80;;;0.80;;
11263;SDS011;5689;48.798;9.070;2022-11-20T04:00:08;0.90;;;0.90;;
11263;SDS011;5689;48.798;9.070;2022-11-20T04:02:37;0.90;;;0.90;;
11263;SDS011;5689;48.798;9.070;2022-11-20T04:05:07;0.80;;;0.80;;
11263;SDS011;5689;48.798;9.070;2022-11-20T04:07:35;0.80;;;0.80;;
11263;SDS011;5689;48.798;9.070;2022-11-20T04:10:04;1.00;;;1.00;;
11263;SDS011;5689;48.798;9.070;2022-11-20T04:12:33;0.80;;;0.80;;
11263;SDS011;5689;48.798;9.070;2022-11-20T04:15:01;0.90;;;0.90;;
11263;SDS011;5689;48.798;9.070;2022-11-20T04:17:29;0.80;;;0.80;;
11263;SDS011;5689;48.798;9.070;2022-11-20T04:19:57;0.90;;;0.90;;
11263;SDS011;5689;48.798;9.070;2022-11-20T04:22:27;0.80;;;0.80;;
11263;SDS011;5689;48.798;9.070;2022-11-20T04:24:55;1.03;;;1.03;;
11263;SDS011;5689;48.798;9.070;2022-11-20T04:27:23;1.00;;;1.00;;
11263;SDS011;5689;48.798;9.070;2022-11-20T04:29:51;0.70;;;0.70;;
11263;SDS011;5689;48.798;9.070;2022-11-20T04:32:19;0.80;;;0.80;;
11263;SDS011;5689;48.798;9.070;2022-11-20T04:34:48;0.70;;;0.70;;
11263;SDS011;5689;48.798;9.070;2022-11-20T04:37:16;0.67;;;0.67;;
11263;SDS011;5689;48.798;9.070;2022-11-20T04:39:46;0.70;;;0.70;;
11263;SDS011;5689;48.798;9.070;2022-11-20T04:42:14;0.80;;;0.80;;
11263;SDS011;5689;48.798;9.070;2022-11-20T04:44:57;0.70;;;0.70;;
11263;SDS011;5689;48.798;9.070;2022-11-20T04:47:26;0.70;;;0.70;;
11263;SDS011;5689;48.798;9.070;2022-11-20T04:49:54;0.70;;;0.70;;
11263;SDS011;5689;48.798;9.070;2022-11-20T04:52:22;0.80;;;0.80;;
11263;SDS011;5689;48.798;9.070;2022-11-20T04:54:52;0.80;;;0.80;;
11263;SDS011;5689;48.798;9.070;2022-11-20T04:57:20;0.90;;;0.90;;
11263;SDS011;5689;48.798;9.070;2022-11-20T04:59:49;0.80;;;0.80;;
11263;SDS011;5689;48.798;9.070;2022-11-20T05:02:17;0.80;;;0.80;;
11263;SDS011;5689;48.798;9.070;2022-11-20T05:04:45;0.80;;;0.80;;
11263;SDS011;5689;48.798;9.070;2022-11-20T05:07:13;0.80;;;0.80;;
11263;SDS011;5689;48.798;9.070;2022-11-20T05:09:41;0.80;;;0.80;;
11263;SDS011;5689;48.798;9.070;2022-11-20T05:12:11;0.70;;;0.70;;
11263;SDS011;5689;48.798;9.070;2022-11-20T05:14:39;0.80;;;0.80;;
11263;SDS011;5689;48.798;9.070;2022-11-20T05:17:09;0.90;;;0.90;;
11263;SDS011;5689;48.798;9.070;2022-11-20T05:19:37;0.80;;;0.80;;
11263;SDS011;5689;48.798;9.070;2022-11-20T05:22:05;0.77;;;0.77;;
11263;SDS011;5689;48.798;9.070;2022-11-20T05:24:33;0.83;;;0.83;;
11263;SDS011;5689;48.798;9.070;2022-11-20T05:27:01;0.80;;;0.80;;
11263;SDS011;5689;48.798;9.070;2022-11-20T05:29:31;0.93;;;0.93;;
11263;SDS011;5689;48.798;9.070;2022-11-20T05:31:59;1.00;;;1.00;;
11263;SDS011;5689;48.798;9.070;2022-11-20T05:34:27;0.80;;;0.80;;
11263;SDS011;5689;48.798;9.070;2022-11-20T05:36:55;0.83;;;0.83;;
11263;SDS011;5689;48.798;9.070;2022-11-20T05:39:22;0.80;;;0.80;;
11263;SDS011;5689;48.798;9.070;2022-11-20T05:41:50;0.80;;;0.80;;
11263;SDS011;5689;48.798;9.070;2022-11-20T05:44:40;0.80;;;0.80;;
11263;SDS011;5689;48.798;9.070;2022-11-20T05:47:08;0.90;;;0.90;;
11263;SDS011;5689;48.798;9.070;2022-11-20T05:49:36;0.80;;;0.80;;
11263;SDS011;5689;48.798;9.070;2022-11-20T05:52:04;0.80;;;0.80;;
11263;SDS011;5689;48.798;9.070;2022-11-20T05:54:32;0.83;;;0.83;;
11263;SDS011;5689;48.798;9.070;2022-11-20T05:57:00;0.80;;;0.80;;
11263;SDS011;5689;48.798;9.070;2022-11-20T05:59:28;0.73;;;0.73;;
11263;SDS011;5689;48.798;9.070;2022-11-20T06:01:57;0.83;;;0.83;;
11263;SDS011;5689;48.798;9.070;2022-11-20T06:04:25;0.80;;;0.80;;
11263;SDS011;5689;48.798;9.070;2022-11-20T06:06:53;1.00;;;1.00;;
11263;SDS011;5689;48.798;9.070;2022-11-20T06:09:21;0.90;;;0.90;;
11263;SDS011;5689;48.798;9.070;2022-11-20T06:11:49;0.70;;;0.70;;
11263;SDS011;5689;48.798;9.070;2022-11-20T06:14:17;0.70;;;0.70;;
11263;SDS011;5689;48.798;9.070;2022-11-20T06:16:45;0.90;;;0.90;;
11263;SDS011;5689;48.798;9.070;2022-11-20T06:19:14;0.90;;;0.90;;
11263;SDS011;5689;48.798;9.070;2022-11-20T06:21:43;0.80;;;0.80;;
11263;SDS011;5689;48.798;9.070;2022-11-20T06:24:11;0.80;;;0.80;;
11263;SDS011;5689;48.798;9.070;2022-11-20T06:26:39;0.80;;;0.80;;
11263;SDS011;5689;48.798;9.070;2022-11-20T06:29:07;0.80;;;0.80;;
11263;SDS011;5689;48.798;9.070;2022-11-20T06:31:35;0.80;;;0.80;;
11263;SDS011;5689;48.798;9.070;2022-11-20T06:34:04;0.90;;;0.90;;
11263;SDS011;5689;48.798;9.070;2022-11-20T06:36:34;0.80;;;0.80;;
11263;SDS011;5689;48.798;9.070;2022-11-20T06:39:02;0.83;;;0.83;;
11263;SDS011;5689;48.798;9.070;2022-11-20T06:41:30;0.90;;;0.90;;
11263;SDS011;5689;48.798;9.070;2022-11-20T06:43:58;0.77;;;0.77;;
11263;SDS011;5689;48.798;9.070;2022-11-20T06:46:26;0.93;;;0.93;;
11263;SDS011;5689;48.798;9.070;2022-11-20T06:48:55;1.07;;;1.07;;
11263;SDS011;5689;48.798;9.070;2022-11-20T06:51:24;0.90;;;0.90;;
11263;SDS011;5689;48.798;9.070;2022-11-20T06:53:54;0.90;;;0.90;;
11263;SDS011;5689;48.798;9.070;2022-11-20T06:56:21;0.80;;;0.80;;
11263;SDS011;5689;48.798;9.070;2022-11-20T06:58:50;0.70;;;0.70;;
11263;SDS011;5689;48.798;9.070;2022-11-20T07:01:18;0.90;;;0.90;;
11263;SDS011;5689;48.798;9.070;2022-11-20T07:03:48;0.70;;;0.70;;
11263;SDS011;5689;48.798;9.070;2022-11-20T07:06:19;0.80;;;0.80;;
11263;SDS011;5689;48.798;9.070;2022-11-20T07:08:47;0.80;;;0.80;;
11263;SDS011;5689;48.798;9.070;2022-11-20T07:11:19;0.80;;;0.80;;
11263;SDS011;5689;48.798;9.070;2022-11-20T07:13:47;0.70;;;0.70;;
11263;SDS011;5689;48.798;9.070;2022-11-20T07:16:15;0.70;;;0.70;;
11263;SDS011;5689;48.798;9.070;2022-11-20T07:18:44;0.70;;;0.70;;
11263;SDS011;5689;48.798;9.070;2022-11-20T07:21:15;0.90;;;0.90;;
11263;SDS011;5689;48.798;9.070;2022-11-20T07:23:43;0.80;;;0.80;;
11263;SDS011;5689;48.798;9.070;2022-11-20T07:26:11;0.70;;;0.70;;
11263;SDS011;5689;48.798;9.070;2022-11-20T07:28:43;0.77;;;0.77;;
11263;SDS011;5689;48.798;9.070;2022-11-20T07:31:11;0.90;;;0.90;;
11263;SDS011;5689;48.798;9.070;2022-11-20T07:33:42;0.90;;;0.90;;
11263;SDS011;5689;48.798;9.070;2022-11-20T07:36:10;0.80;;;0.80;;
11263;SDS011;5689;48.798;9.070;2022-11-20T07:38:38;0.73;;;0.73;;
11263;SDS011;5689;48.798;9.070;2022-11-20T07:41:06;0.80;;;0.80;;
11263;SDS011;5689;48.798;9.070;2022-11-20T07:43:34;0.73;;;0.73;;
11263;SDS011;5689;48.798;9.070;2022-11-20T07:46:07;0.90;;;0.90;;
11263;SDS011;5689;48.798;9.070;2022-11-20T07:48:35;0.90;;;0.90;;
11263;SDS011;5689;48.798;9.070;2022-11-20T07:51:03;0.73;;;0.73;;
11263;SDS011;5689;48.798;9.070;2022-11-20T07:53:32;0.70;;;0.70;;
11263;SDS011;5689;48.798;9.070;2022-11-20T07:56:00;0.70;;;0.70;;
11263;SDS011;5689;48.798;9.070;2022-11-20T07:58:28;0.70;;;0.70;;
11263;SDS011;5689;48.798;9.070;2022-11-20T08:01:02;0.60;;;0.60;;
11263;SDS011;5689;48.798;9.070;2022-11-20T08:03:32;0.70;;;0.70;;
11263;SDS011;5689;48.798;9.070;2022-11-20T08:06:00;0.70;;;0.70;;
11263;SDS011;5689;48.798;9.070;2022-11-20T08:08:29;0.80;;;0.80;;
11263;SDS011;5689;48.798;9.070;2022-11-20T08:10:59;0.70;;;0.70;;
11263;SDS011;5689;48.798;9.070;2022-11-20T08:13:40;0.60;;;0.60;;
11263;SDS011;5689;48.798;9.070;2022-11-20T08:16:26;0.70;;;0.70;;
11263;SDS011;5689;48.798;9.070;2022-11-20T08:18:55;0.70;;;0.70;;
11263;SDS011;5689;48.798;9.070;2022-11-20T08:21:23;0.70;;;0.70;;
11263;SDS011;5689;48.798;9.070;2022-11-20T08:23:51;0.60;;;0.60;;
11263;SDS011;5689;48.798;9.070;2022-11-20T08:26:20;0.70;;;0.70;;
11263;SDS011;5689;48.798;9.070;2022-11-20T08:28:48;0.70;;;0.70;;
11263;SDS011;5689;48.798;9.070;2022-11-20T08:31:16;0.60;;;0.60;;
11263;SDS011;5689;48.798;9.070;2022-11-20T08:33:44;0.60;;;0.60;;
11263;SDS011;5689;48.798;9.070;2022-11-20T08:36:13;0.60;;;0.60;;
11263;SDS011;5689;48.798;9.070;2022-11-20T08:38:41;0.70;;;0.70;;
11263;SDS011;5689;48.798;9.070;2022-11-20T08:41:09;0.60;;;0.60;;
11263;SDS011;5689;48.798;9.070;2022-11-20T08:43:54;0.60;;;0.60;;
11263;SDS011;5689;48.798;9.070;2022-11-20T08:46:23;0.60;;;0.60;;
11263;SDS011;5689;48.798;9.070;2022-11-20T08:48:52;0.60;;;0.60;;
11263;SDS011;5689;48.798;9.070;2022-11-20T08:51:22;0.60;;;0.60;;
11263;SDS011;5689;48.798;9.070;2022-11-20T08:53:50;0.50;;;0.50;;
11263;SDS011;5689;48.798;9.070;2022-11-20T08:56:18;0.60;;;0.60;;
11263;SDS011;5689;48.798;9.070;2022-11-20T08:58:46;0.60;;;0.60;;
11263;SDS011;5689;48.798;9.070;2022-11-20T09:01:34;0.63;;;0.63;;
11263;SDS011;5689;48.798;9.070;2022-11-20T09:04:02;0.67;;;0.67;;
11263;SDS011;5689;48.798;9.070;2022-11-20T09:06:32;0.70;;;0.70;;
11263;SDS011;5689;48.798;9.070;2022-11-20T09:09:00;0.60;;;0.60;;
11263;SDS011;5689;48.798;9.070;2022-11-20T09:11:31;0.57;;;0.57;;
11263;SDS011;5689;48.798;9.070;2022-11-20T09:13:59;0.60;;;0.60;;
11263;SDS011;5689;48.798;9.070;2022-11-20T09:16:29;0.70;;;0.70;;
11263;SDS011;5689;48.798;9.070;2022-11-20T09:18:57;0.60;;;0.60;;
11263;SDS011;5689;48.798;9.070;2022-11-20T09:21:40;0.60;;;0.60;;
11263;SDS011;5689;48.798;9.070;2022-11-20T09:24:08;0.50;;;0.50;;
11263;SDS011;5689;48.798;9.070;2022-11-20T09:26:36;0.60;;;0.60;;
11263;SDS011;5689;48.798;9.070;2022-11-20T09:29:04;0.60;;;0.60;;
11263;SDS011;5689;48.798;9.070;2022-11-20T09:31:32;0.60;;;0.60;;
11263;SDS011;5689;48.798;9.070;2022-11-20T09:34:00;0.70;;;0.70;;
11263;SDS011;5689;48.798;9.070;2022-11-20T09:36:28;0.57;;;0.57;;
11263;SDS011;5689;48.798;9.070;2022-11-20T09:38:57;0.60;;;0.60;;
11263;SDS011;5689;48.798;9.070;2022-11-20T09:41:38;0.70;;;0.70;;
11263;SDS011;5689;48.798;9.070;2022-11-20T09:44:21;0.70;;;0.70;;
11263;SDS011;5689;48.798;9.070;2022-11-20T09:47:01;0.60;;;0.60;;
11263;SDS011;5689;48.798;9.070;2022-11-20T09:49:37;0.50;;;0.50;;
11263;SDS011;5689;48.798;9.070;2022-11-20T09:52:22;0.60;;;0.60;;
11263;SDS011;5689;48.798;9.070;2022-11-20T09:54:59;0.70;;;0.70;;
11263;SDS011;5689;48.798;9.070;2022-11-20T09:57:31;0.60;;;0.60;;
11263;SDS011;5689;48.798;9.070;2022-11-20T10:00:04;0.60;;;0.60;;
11263;SDS011;5689;48.798;9.070;2022-11-20T10:02:41;0.70;;;0.70;;
11263;SDS011;5689;48.798;9.070;2022-11-20T10:05:15;0.60;;;0.60;;
11263;SDS011;5689;48.798;9.070;2022-11-20T10:07:48;0.63;;;0.63;;
11263;SDS011;5689;48.798;9.070;2022-11-20T10:10:26;0.60;;;0.60;;
11263;SDS011;5689;48.798;9.070;2022-11-20T10:13:06;0.77;;;0.77;;
11263;SDS011;5689;48.798;9.070;2022-11-20T10:15:53;0.60;;;0.60;;
11263;SDS011;5689;48.798;9.070;2022-11-20T10:18:37;0.60;;;0.60;;
11263;SDS011;5689;48.798;9.070;2022-11-20T10:21:14;0.77;;;0.77;;
11263;SDS011;5689;48.798;9.070;2022-11-20T10:23:59;0.70;;;0.70;;
11263;SDS011;5689;48.798;9.070;2022-11-20T10:26:43;0.70;;;0.70;;
11263;SDS011;5689;48.798;9.070;2022-11-20T10:29:17;0.70;;;0.70;;
11263;SDS011;5689;48.798;9.070;2022-11-20T10:31:50;0.70;;;0.70;;
11263;SDS011;5689;48.798;9.070;2022-11-20T10:34:23;0.70;;;0.70;;
11263;SDS011;5689;48.798;9.070;2022-11-20T10:36:58;0.73;;;0.73;;
11263;SDS011;5689;48.798;9.070;2022-11-20T10:39:32;0.90;;;0.90;;
11263;SDS011;5689;48.798;9.070;2022-11-20T10:42:10;0.70;;;0.70;;
11263;SDS011;5689;48.798;9.070;2022-11-20T10:44:41;0.80;;;0.80;;
11263;SDS011;5689;48.798;9.070;2022-11-20T10:47:31;0.80;;;0.80;;
11263;SDS011;5689;48.798;9.070;2022-11-20T10:50:01;0.80;;;0.80;;
11263;SDS011;5689;48.798;9.070;2022-11-20T10:52:33;0.80;;;0.80;;
11263;SDS011;5689;48.798;9.070;2022-11-20T10:55:12;0.70;;;0.70;;
11263;SDS011;5689;48.798;9.070;2022-11-20T10:57:56;0.90;;;0.90;;
11263;SDS011;5689;48.798;9.070;2022-11-20T11:00:30;0.73;;;0.73;;
11263;SDS011;5689;48.798;9.070;2022-11-20T11:02:59;0.70;;;0.70;;
11263;SDS011;5689;48.798;9.070;2022-11-20T11:05:33;0.70;;;0.70;;
11263;SDS011;5689;48.798;9.070;2022-11-20T11:08:07;0.80;;;0.80;;
11263;SDS011;5689;48.798;9.070;2022-11-20T11:10:44;0.70;;;0.70;;
11263;SDS011;5689;48.798;9.070;2022-11-20T11:13:22;0.70;;;0.70;;
11263;SDS011;5689;48.798;9.070;2022-11-20T11:15:52;0.70;;;0.70;;
11263;SDS011;5689;48.798;9.070;2022-11-20T11:18:25;0.80;;;0.80;;
11263;SDS011;5689;48.798;9.070;2022-11-20T11:20:55;1.10;;;1.10;;
11263;SDS011;5689;48.798;9.070;2022-11-20T11:23:31;0.77;;;0.77;;
11263;SDS011;5689;48.798;9.070;2022-11-20T11:26:02;0.70;;;0.70;;
11263;SDS011;5689;48.798;9.070;2022-11-20T11:28:33;0.50;;;0.50;;
11263;SDS011;5689;48.798;9.070;2022-11-20T11:31:01;0.35;;;0.35;;
11263;SDS011;5689;48.798;9.070;2022-11-20T11:33:29;0.10;;;0.10;;
11263;SDS011;5689;48.798;9.070;2022-11-20T11:36:01;0.25;;;0.25;;
11263;SDS011;5689;48.798;9.070;2022-11-20T11:38:32;0.40;;;0.40;;
11263;SDS011;5689;48.798;9.070;2022-11-20T11:41:03;0.30;;;0.30;;
11263;SDS011;5689;48.798;9.070;2022-11-20T11:43:35;0.30;;;0.30;;
11263;SDS011;5689;48.798;9.070;2022-11-20T11:46:27;0.22;;;0.22;;
11263;SDS011;5689;48.798;9.070;2022-11-20T11:48:58;0.10;;;0.10;;
11263;SDS011;5689;48.798;9.070;2022-11-20T11:51:29;0.10;;;0.10;;
11263;SDS011;5689;48.798;9.070;2022-11-20T11:54:02;0.30;;;0.30;;
11263;SDS011;5689;48.798;9.070;2022-11-20T11:56:37;0.20;;;0.20;;
11263;SDS011;5689;48.798;9.070;2022-11-20T11:59:08;0.30;;;0.30;;
11263;SDS011;5689;48.798;9.070;2022-11-20T12:01:42;0.20;;;0.20;;
11263;SDS011;5689;48.798;9.070;2022-11-20T12:04:17;0.30;;;0.30;;
11263;SDS011;5689;48.798;9.070;2022-11-20T12:06:51;0.28;;;0.28;;
11263;SDS011;5689;48.798;9.070;2022-11-20T12:09:28;0.40;;;0.40;;
11263;SDS011;5689;48.798;9.070;2022-11-20T12:12:04;0.30;;;0.30;;
11263;SDS011;5689;48.798;9.070;2022-11-20T12:14:39;0.10;;;0.10;;
11263;SDS011;5689;48.798;9.070;2022-11-20T12:17:10;0.30;;;0.30;;
11263;SDS011;5689;48.798;9.070;2022-11-20T12:19:39;0.30;;;0.30;;
11263;SDS011;5689;48.798;9.070;2022-11-20T12:22:10;0.40;;;0.40;;
11263;SDS011;5689;48.798;9.070;2022-11-20T12:24:46;0.40;;;0.40;;
11263;SDS011;5689;48.798;9.070;2022-11-20T12:30:16;0.20;;;0.20;;
11263;SDS011;5689;48.798;9.070;2022-11-20T12:32:59;0.20;;;0.20;;
11263;SDS011;5689;48.798;9.070;2022-11-20T12:35:44;0.15;;;0.15;;
11263;SDS011;5689;48.798;9.070;2022-11-20T12:38:36;0.20;;;0.20;;
11263;SDS011;5689;48.798;9.070;2022-11-20T12:41:25;0.22;;;0.22;;
11263;SDS011;5689;48.798;9.070;2022-11-20T12:44:24;0.30;;;0.30;;
11263;SDS011;5689;48.798;9.070;2022-11-20T12:47:23;0.40;;;0.40;;
11263;SDS011;5689;48.798;9.070;2022-11-20T12:50:02;0.30;;;0.30;;
11263;SDS011;5689;48.798;9.070;2022-11-20T12:52:38;0.40;;;0.40;;
11263;SDS011;5689;48.798;9.070;2022-11-20T12:55:14;0.40;;;0.40;;
11263;SDS011;5689;48.798;9.070;2022-11-20T12:57:50;0.50;;;0.50;;
11263;SDS011;5689;48.798;9.070;2022-11-20T13:00:21;0.60;;;0.60;;
11263;SDS011;5689;48.798;9.070;2022-11-20T13:03:08;0.50;;;0.50;;
11263;SDS011;5689;48.798;9.070;2022-11-20T13:06:12;0.60;;;0.60;;
11263;SDS011;5689;48.798;9.070;2022-11-20T13:08:45;0.50;;;0.50;;
11263;SDS011;5689;48.798;9.070;2022-11-20T13:11:21;0.43;;;0.43;;
11263;SDS011;5689;48.798;9.070;2022-11-20T13:14:02;0.40;;;0.40;;
11263;SDS011;5689;48.798;9.070;2022-11-20T13:16:38;0.50;;;0.50;;
11263;SDS011;5689;48.798;9.070;2022-11-20T13:19:16;0.60;;;0.60;;
11263;SDS011;5689;48.798;9.070;2022-11-20T13:21:45;0.40;;;0.40;;
11263;SDS011;5689;48.798;9.070;2022-11-20T13:24:23;0.47;;;0.47;;
11263;SDS011;5689;48.798;9.070;2022-11-20T13:27:01;0.40;;;0.40;;
11263;SDS011;5689;48.798;9.070;2022-11-20T13:29:46;0.50;;;0.50;;
11263;SDS011;5689;48.798;9.070;2022-11-20T13:32:26;0.40;;;0.40;;
11263;SDS011;5689;48.798;9.070;2022-11-20T13:34:59;0.40;;;0.40;;
11263;SDS011;5689;48.798;9.070;2022-11-20T13:37:31;0.43;;;0.43;;
11263;SDS011;5689;48.798;9.070;2022-11-20T13:40:13;0.50;;;0.50;;
11263;SDS011;5689;48.798;9.070;2022-11-20T13:42:54;0.50;;;0.50;;
11263;SDS011;5689;48.798;9.070;2022-11-20T13:45:25;0.50;;;0.50;;
11263;SDS011;5689;48.798;9.070;2022-11-20T13:47:55;0.50;;;0.50;;
11263;SDS011;5689;48.798;9.070;2022-11-20T13:50:32;0.57;;;0.57;;
11263;SDS011;5689;48.798;9.070;2022-11-20T13:53:11;0.60;;;0.60;;
11263;SDS011;5689;48.798;9.070;2022-11-20T13:55:54;0.50;;;0.50;;
11263;SDS011;5689;48.798;9.070;2022-11-20T13:58:32;0.50;;;0.50;;
11263;SDS011;5689;48.798;9.070;2022-11-20T14:01:11;0.67;;;0.67;;
11263;SDS011;5689;48.798;9.070;2022-11-20T14:03:43;0.70;;;0.70;;
11263;SDS011;5689;48.798;9.070;2022-11-20T14:06:34;0.63;;;0.63;;
11263;SDS011;5689;48.798;9.070;2022-11-20T14:09:10;0.60;;;0.60;;
11263;SDS011;5689;48.798;9.070;2022-11-20T14:11:45;0.60;;;0.60;;
11263;SDS011;5689;48.798;9.070;2022-11-20T14:14:15;0.60;;;0.60;;
11263;SDS011;5689;48.798;9.070;2022-11-20T14:16:45;0.60;;;0.60;;
11263;SDS011;5689;48.798;9.070;2022-11-20T14:19:22;0.67;;;0.67;;
11263;SDS011;5689;48.798;9.070;2022-11-20T14:22:08;0.70;;;0.70;;
11263;SDS011;5689;48.798;9.070;2022-11-20T14:24:38;0.60;;;0.60;;
11263;SDS011;5689;48.798;9.070;2022-11-20T14:27:10;0.50;;;0.50;;
11263;SDS011;5689;48.798;9.070;2022-11-20T14:29:40;0.70;;;0.70;;
11263;SDS011;5689;48.798;9.070;2022-11-20T14:32:10;0.60;;;0.60;;
11263;SDS011;5689;48.798;9.070;2022-11-20T14:34:39;0.60;;;0.60;;
11263;SDS011;5689;48.798;9.070;2022-11-20T14:37:12;0.60;;;0.60;;
11263;SDS011;5689;48.798;9.070;2022-11-20T14:39:48;0.60;;;0.60;;
11263;SDS011;5689;48.798;9.070;2022-11-20T14:42:18;0.60;;;0.60;;
11263;SDS011;5689;48.798;9.070;2022-11-20T14:44:48;0.60;;;0.60;;
11263;SDS011;5689;48.798;9.070;2022-11-20T14:47:18;0.60;;;0.60;;
11263;SDS011;5689;48.798;9.070;2022-11-20T14:49:49;0.50;;;0.50;;
11263;SDS011;5689;48.798;9.070;2022-11-20T14:52:20;0.60;;;0.60;;
11263;SDS011;5689;48.798;9.070;2022-11-20T14:54:50;0.63;;;0.63;;
11263;SDS011;5689;48.798;9.070;2022-11-20T14:57:25;0.60;;;0.60;;
11263;SDS011;5689;48.798;9.070;2022-11-20T15:00:07;0.60;;;0.60;;
11263;SDS011;5689;48.798;9.070;2022-11-20T15:02:46;0.70;;;0.70;;
11263;SDS011;5689;48.798;9.070;2022-11-20T15:05:15;0.60;;;0.60;;
11263;SDS011;5689;48.798;9.070;2022-11-20T15:07:47;0.60;;;0.60;;
11263;SDS011;5689;48.798;9.070;2022-11-20T15:10:20;0.70;;;0.70;;
11263;SDS011;5689;48.798;9.070;2022-11-20T15:12:50;0.70;;;0.70;;
11263;SDS011;5689;48.798;9.070;2022-11-20T15:15:21;0.70;;;0.70;;
11263;SDS011;5689;48.798;9.070;2022-11-20T15:17:53;0.77;;;0.77;;
11263;SDS011;5689;48.798;9.070;2022-11-20T15:20:21;0.67;;;0.67;;
11263;SDS011;5689;48.798;9.070;2022-11-20T15:22:55;0.60;;;0.60;;
11263;SDS011;5689;48.798;9.070;2022-11-20T15:25:23;0.77;;;0.77;;
11263;SDS011;5689;48.798;9.070;2022-11-20T15:27:53;0.70;;;0.70;;
11263;SDS011;5689;48.798;9.070;2022-11-20T15:30:23;0.70;;;0.70;;
11263;SDS011;5689;48.798;9.070;2022-11-20T15:32:51;0.70;;;0.70;;
11263;SDS011;5689;48.798;9.070;2022-11-20T15:35:19;0.77;;;0.77;;